X  Chiuso Dati meteorologici dell'aviazione (METAR)     EHAM Amsterdam Airport Schiphol
Temperatura
50°F Temperatura
46°F Punto di rugiada
88% Umidità



Vento
24 MPH
39 KM/O
11 M/S
21 KTS



230°
SW
Condizioni attuali

Parzialmente nuvoloso Parzialmente nuvoloso
Pressione 1022.01 (hPa) - 30.18 (inHg)
Visibilità 6 (miglio) - 9.7 (km)
Aeroporto
Codice-Aeroporto EHAM

Posizione: Amsterdam Airport Schiphol
Distanza: 26 (mi)

Metar:
EHAM 202125Z 23021KT 9999 FEW009 SCT012 BKN014 10/08 Q1022 NOSIG

Ore: 20-02-2024 22:25 CET